EWG4LQ EDDK-LEPA
Flight info
| Callsign | EWG4LQ |
|---|---|
| Flight time | 1h 46m |
| Altitude | 35000 |
| Route | NVO3P NVO Y868 NAVAK Z283 SOPOK DCT ROUSY DCT GTQ DCT POGOL DCT LASAT DCT MOROK DCT GILIR DCT GEVEA DCT INCUS DCT BALSI DCT RETNO DCT TUPOX DCT MTG DCT DIVKO DCT VATIR DCT PIVUS DCT BODEQ DCT VERSO L129 LUNIK |
| Aircraft | A320/M-SDE3FGHIRWY/LB1 |
Departure
| Time | 2026-04-22 20:24 |
|---|---|
| Airport | Cologne Bonn Airport (EDDK) |
Arrival
| Time | 2026-04-22 22:11 |
|---|---|
| Airport | Palma de Mallorca Airport (LEPA) |
| Time | Latitude | Longitude | Altitude | Speed | Heading |
|---|---|---|---|---|---|
| 2026-04-22 20:01 | 50.87803 | 7.12417 | 205 ft | 0 kts | 288° |
| 2026-04-22 20:18 | 50.87800 | 7.12434 | 232 ft | 4 kts | 291° |
| 2026-04-22 20:18 | 50.87788 | 7.12472 | 232 ft | 4 kts | 305° |
| 2026-04-22 20:18 | 50.87770 | 7.12503 | 234 ft | 4 kts | 323° |
| 2026-04-22 20:19 | 50.87747 | 7.12523 | 232 ft | 4 kts | 346° |
| 2026-04-22 20:19 | 50.87722 | 7.12526 | 232 ft | 3 kts | 15° |
| 2026-04-22 20:19 | 50.87718 | 7.12524 | 232 ft | 0 kts | 18° |
| 2026-04-22 20:21 | 50.87729 | 7.12530 | 232 ft | 7 kts | 18° |
| 2026-04-22 20:21 | 50.87807 | 7.12571 | 232 ft | 14 kts | 19° |
| 2026-04-22 20:22 | 50.87892 | 7.12614 | 232 ft | 12 kts | 17° |
| 2026-04-22 20:22 | 50.87967 | 7.12679 | 233 ft | 11 kts | 50° |
| 2026-04-22 20:22 | 50.87996 | 7.12756 | 240 ft | 4 kts | 67° |
| 2026-04-22 20:22 | 50.87998 | 7.12764 | 236 ft | 0 kts | 69° |
| 2026-04-22 20:23 | 50.88006 | 7.12807 | 238 ft | 10 kts | 78° |
| 2026-04-22 20:23 | 50.88001 | 7.12947 | 239 ft | 13 kts | 105° |
| 2026-04-22 20:23 | 50.87968 | 7.13026 | 239 ft | 12 kts | 139° |
| 2026-04-22 20:23 | 50.87910 | 7.13106 | 239 ft | 12 kts | 139° |
| 2026-04-22 20:24 | 50.87822 | 7.13232 | 239 ft | 47 kts | 137° |
| 2026-04-22 20:24 | 50.87403 | 7.13841 | 241 ft | 113 kts | 137° |
| 2026-04-22 20:24 | 50.86426 | 7.15260 | 372 ft | 163 kts | 134° |
| 2026-04-22 20:24 | 50.85606 | 7.16441 | 1035 ft | 159 kts | 135° |
| 2026-04-22 20:25 | 50.85044 | 7.17233 | 1471 ft | 160 kts | 136° |
| 2026-04-22 20:25 | 50.84200 | 7.18405 | 1974 ft | 167 kts | 134° |
| 2026-04-22 20:25 | 50.83291 | 7.19681 | 2297 ft | 183 kts | 135° |
| 2026-04-22 20:25 | 50.82287 | 7.21074 | 2552 ft | 203 kts | 135° |
| 2026-04-22 20:26 | 50.81187 | 7.22609 | 2984 ft | 217 kts | 136° |
| 2026-04-22 20:26 | 50.80015 | 7.24144 | 3653 ft | 222 kts | 148° |
| 2026-04-22 20:26 | 50.78513 | 7.24697 | 4335 ft | 229 kts | 184° |
| 2026-04-22 20:26 | 50.76983 | 7.23914 | 4945 ft | 239 kts | 212° |
| 2026-04-22 20:27 | 50.75861 | 7.21973 | 5518 ft | 245 kts | 245° |
| 2026-04-22 20:27 | 50.75280 | 7.19461 | 6165 ft | 248 kts | 258° |
| 2026-04-22 20:27 | 50.75135 | 7.16740 | 6791 ft | 254 kts | 275° |
| 2026-04-22 20:27 | 50.75464 | 7.13881 | 7104 ft | 274 kts | 285° |
| 2026-04-22 20:28 | 50.75906 | 7.10892 | 7722 ft | 283 kts | 284° |
| 2026-04-22 20:28 | 50.76338 | 7.07839 | 8466 ft | 287 kts | 284° |
| 2026-04-22 20:28 | 50.76765 | 7.04738 | 9231 ft | 291 kts | 284° |
| 2026-04-22 20:28 | 50.77191 | 7.01594 | 9984 ft | 295 kts | 284° |
| 2026-04-22 20:29 | 50.77624 | 6.98385 | 10619 ft | 303 kts | 284° |
| 2026-04-22 20:29 | 50.78081 | 6.95004 | 10806 ft | 326 kts | 284° |
| 2026-04-22 20:29 | 50.78575 | 6.91375 | 10965 ft | 349 kts | 284° |
| 2026-04-22 20:29 | 50.79094 | 6.87505 | 11085 ft | 372 kts | 282° |
| 2026-04-22 20:30 | 50.79177 | 6.83313 | 11218 ft | 395 kts | 263° |
| 2026-04-22 20:30 | 50.78275 | 6.79148 | 11564 ft | 408 kts | 240° |
| 2026-04-22 20:30 | 50.76464 | 6.75697 | 12091 ft | 413 kts | 220° |
| 2026-04-22 20:30 | 50.74229 | 6.72801 | 12659 ft | 417 kts | 221° |
| 2026-04-22 20:31 | 50.72166 | 6.69543 | 13228 ft | 421 kts | 229° |
| 2026-04-22 20:31 | 50.70293 | 6.65974 | 13801 ft | 425 kts | 233° |
| 2026-04-22 20:31 | 50.68542 | 6.62259 | 14336 ft | 428 kts | 235° |
| 2026-04-22 20:31 | 50.66798 | 6.58429 | 14843 ft | 432 kts | 235° |
| 2026-04-22 20:32 | 50.65023 | 6.54590 | 15340 ft | 435 kts | 234° |
| 2026-04-22 20:32 | 50.63190 | 6.50767 | 15817 ft | 439 kts | 233° |
| 2026-04-22 20:32 | 50.61303 | 6.46976 | 16278 ft | 442 kts | 232° |
| 2026-04-22 20:32 | 50.59364 | 6.43185 | 16734 ft | 445 kts | 231° |
| 2026-04-22 20:33 | 50.57403 | 6.39400 | 17183 ft | 448 kts | 231° |
| 2026-04-22 20:33 | 50.55422 | 6.35582 | 17628 ft | 452 kts | 231° |
| 2026-04-22 20:33 | 50.53434 | 6.31739 | 18068 ft | 454 kts | 232° |
| 2026-04-22 20:33 | 50.51440 | 6.27866 | 18498 ft | 457 kts | 232° |
| 2026-04-22 20:34 | 50.49436 | 6.23964 | 18874 ft | 460 kts | 232° |
| 2026-04-22 20:34 | 50.47431 | 6.20042 | 19245 ft | 462 kts | 232° |
| 2026-04-22 20:34 | 50.45416 | 6.16092 | 19605 ft | 464 kts | 232° |
| 2026-04-22 20:34 | 50.43397 | 6.12144 | 19950 ft | 466 kts | 232° |
| 2026-04-22 20:35 | 50.41358 | 6.08173 | 20307 ft | 468 kts | 232° |
| 2026-04-22 20:35 | 50.39311 | 6.04204 | 20645 ft | 469 kts | 232° |
| 2026-04-22 20:35 | 50.37254 | 6.00225 | 20950 ft | 471 kts | 232° |
| 2026-04-22 20:35 | 50.35185 | 5.96232 | 21243 ft | 473 kts | 232° |
| 2026-04-22 20:36 | 50.33099 | 5.92232 | 21534 ft | 475 kts | 231° |
| 2026-04-22 20:36 | 50.30855 | 5.88410 | 21823 ft | 478 kts | 222° |
| 2026-04-22 20:36 | 50.28229 | 5.85317 | 22111 ft | 480 kts | 211° |
| 2026-04-22 20:36 | 50.25232 | 5.83024 | 22416 ft | 480 kts | 199° |
| 2026-04-22 20:37 | 50.22016 | 5.81658 | 22710 ft | 480 kts | 188° |
| 2026-04-22 20:37 | 50.18693 | 5.81274 | 22975 ft | 479 kts | 176° |
| 2026-04-22 20:37 | 50.15394 | 5.81876 | 23216 ft | 477 kts | 165° |
| 2026-04-22 20:37 | 50.12195 | 5.83234 | 23466 ft | 478 kts | 161° |
| 2026-04-22 20:38 | 50.08995 | 5.84663 | 23701 ft | 479 kts | 161° |
| 2026-04-22 20:38 | 50.05780 | 5.86085 | 23925 ft | 481 kts | 162° |
| 2026-04-22 20:38 | 50.02554 | 5.87505 | 24113 ft | 482 kts | 162° |
| 2026-04-22 20:38 | 49.99313 | 5.88928 | 24274 ft | 484 kts | 162° |
| 2026-04-22 20:39 | 49.96066 | 5.90357 | 24443 ft | 486 kts | 162° |
| 2026-04-22 20:39 | 49.92815 | 5.91784 | 24669 ft | 486 kts | 162° |
| 2026-04-22 20:39 | 49.89562 | 5.93207 | 24921 ft | 485 kts | 162° |
| 2026-04-22 20:39 | 49.86320 | 5.94627 | 25177 ft | 484 kts | 162° |
| 2026-04-22 20:40 | 49.83080 | 5.96050 | 25421 ft | 484 kts | 162° |
| 2026-04-22 20:40 | 49.79847 | 5.97472 | 25662 ft | 484 kts | 162° |
| 2026-04-22 20:40 | 49.76605 | 5.98896 | 25885 ft | 484 kts | 162° |
| 2026-04-22 20:40 | 49.73357 | 6.00317 | 26126 ft | 485 kts | 162° |
| 2026-04-22 20:41 | 49.70114 | 6.01733 | 26371 ft | 485 kts | 162° |
| 2026-04-22 20:41 | 49.66861 | 6.03150 | 26634 ft | 485 kts | 162° |
| 2026-04-22 20:41 | 49.63617 | 6.04560 | 26891 ft | 484 kts | 162° |
| 2026-04-22 20:41 | 49.60376 | 6.05967 | 27156 ft | 484 kts | 162° |
| 2026-04-22 20:42 | 49.57134 | 6.07378 | 27416 ft | 484 kts | 162° |
| 2026-04-22 20:42 | 49.53886 | 6.08791 | 27658 ft | 485 kts | 162° |
| 2026-04-22 20:42 | 49.50650 | 6.10263 | 27913 ft | 484 kts | 158° |
| 2026-04-22 20:42 | 49.47570 | 6.12322 | 28181 ft | 481 kts | 149° |
| 2026-04-22 20:43 | 49.44754 | 6.15073 | 28452 ft | 478 kts | 140° |
| 2026-04-22 20:43 | 49.42176 | 6.18269 | 28722 ft | 477 kts | 138° |
| 2026-04-22 20:43 | 49.39598 | 6.21488 | 28999 ft | 477 kts | 138° |
| 2026-04-22 20:43 | 49.37019 | 6.24687 | 29300 ft | 477 kts | 138° |
| 2026-04-22 20:44 | 49.34439 | 6.27867 | 29600 ft | 476 kts | 138° |
| 2026-04-22 20:44 | 49.31851 | 6.31044 | 29879 ft | 476 kts | 139° |
| 2026-04-22 20:44 | 49.29263 | 6.34220 | 30154 ft | 476 kts | 139° |
| 2026-04-22 20:44 | 49.26713 | 6.37350 | 30418 ft | 476 kts | 138° |
| 2026-04-22 20:45 | 49.24094 | 6.40568 | 30649 ft | 476 kts | 138° |
| 2026-04-22 20:45 | 49.21548 | 6.43696 | 30886 ft | 476 kts | 139° |
| 2026-04-22 20:45 | 49.18965 | 6.46866 | 31137 ft | 475 kts | 139° |
| 2026-04-22 20:45 | 49.16391 | 6.50023 | 31383 ft | 475 kts | 139° |
| 2026-04-22 20:46 | 49.11229 | 6.56331 | 31867 ft | 475 kts | 139° |
| 2026-04-22 20:46 | 49.08639 | 6.59480 | 32041 ft | 476 kts | 139° |
| 2026-04-22 20:46 | 49.06047 | 6.62623 | 32271 ft | 477 kts | 139° |
| 2026-04-22 20:47 | 49.03443 | 6.65749 | 32542 ft | 476 kts | 142° |
| 2026-04-22 20:47 | 49.00610 | 6.68387 | 32808 ft | 478 kts | 153° |
| 2026-04-22 20:47 | 48.97518 | 6.70225 | 33042 ft | 478 kts | 163° |
| 2026-04-22 20:47 | 48.94254 | 6.71202 | 33283 ft | 479 kts | 174° |
| 2026-04-22 20:48 | 48.90927 | 6.71325 | 33507 ft | 478 kts | 182° |
| 2026-04-22 20:48 | 48.87603 | 6.71179 | 33745 ft | 478 kts | 182° |
| 2026-04-22 20:48 | 48.84273 | 6.71041 | 33919 ft | 480 kts | 182° |
| 2026-04-22 20:48 | 48.80934 | 6.70911 | 34117 ft | 481 kts | 182° |
| 2026-04-22 20:49 | 48.77589 | 6.70785 | 34325 ft | 481 kts | 182° |
| 2026-04-22 20:49 | 48.74245 | 6.70662 | 34521 ft | 481 kts | 182° |
| 2026-04-22 20:49 | 48.70904 | 6.70536 | 34716 ft | 480 kts | 182° |
| 2026-04-22 20:49 | 48.67564 | 6.70409 | 34913 ft | 480 kts | 182° |
| 2026-04-22 20:50 | 48.64224 | 6.70280 | 35105 ft | 480 kts | 182° |
| 2026-04-22 20:50 | 48.60887 | 6.70147 | 35251 ft | 480 kts | 182° |
| 2026-04-22 20:50 | 48.54157 | 6.69880 | 35285 ft | 487 kts | 182° |
| 2026-04-22 20:51 | 48.47371 | 6.69616 | 35285 ft | 488 kts | 182° |
| 2026-04-22 20:51 | 48.40575 | 6.69356 | 35280 ft | 489 kts | 182° |
| 2026-04-22 20:52 | 48.33776 | 6.69093 | 35274 ft | 489 kts | 182° |
| 2026-04-22 20:52 | 48.26967 | 6.68823 | 35273 ft | 489 kts | 182° |
| 2026-04-22 20:53 | 48.20163 | 6.68562 | 35263 ft | 490 kts | 183° |
| 2026-04-22 20:53 | 48.13345 | 6.68310 | 35256 ft | 490 kts | 183° |
| 2026-04-22 20:54 | 48.06519 | 6.68057 | 35250 ft | 491 kts | 183° |
| 2026-04-22 20:54 | 47.99694 | 6.67798 | 35236 ft | 491 kts | 184° |
| 2026-04-22 20:55 | 47.92857 | 6.67539 | 35235 ft | 491 kts | 184° |
| 2026-04-22 20:55 | 47.86015 | 6.67278 | 35231 ft | 492 kts | 184° |
| 2026-04-22 20:56 | 47.79178 | 6.67019 | 35229 ft | 492 kts | 184° |
| 2026-04-22 20:56 | 47.72326 | 6.66759 | 35227 ft | 493 kts | 184° |
| 2026-04-22 20:57 | 47.65515 | 6.66509 | 35227 ft | 493 kts | 184° |
| 2026-04-22 20:57 | 47.58654 | 6.66248 | 35209 ft | 493 kts | 184° |
| 2026-04-22 20:58 | 47.51747 | 6.65987 | 35206 ft | 493 kts | 184° |
| 2026-04-22 20:58 | 47.44901 | 6.65504 | 35211 ft | 490 kts | 192° |
| 2026-04-22 20:59 | 47.38464 | 6.62605 | 35199 ft | 479 kts | 211° |
| 2026-04-22 20:59 | 47.33060 | 6.57240 | 35199 ft | 468 kts | 226° |
| 2026-04-22 21:00 | 47.28104 | 6.51004 | 35207 ft | 469 kts | 226° |
| 2026-04-22 21:00 | 47.23118 | 6.44777 | 35195 ft | 470 kts | 226° |
| 2026-04-22 21:01 | 47.18127 | 6.38564 | 35190 ft | 470 kts | 226° |
| 2026-04-22 21:01 | 47.13138 | 6.32363 | 35204 ft | 470 kts | 226° |
| 2026-04-22 21:02 | 47.07868 | 6.26614 | 35204 ft | 480 kts | 214° |
| 2026-04-22 21:02 | 47.01503 | 6.23346 | 35200 ft | 494 kts | 193° |
| 2026-04-22 21:03 | 46.94612 | 6.22330 | 35187 ft | 498 kts | 189° |
| 2026-04-22 21:03 | 46.87703 | 6.21425 | 35193 ft | 499 kts | 189° |
| 2026-04-22 21:04 | 46.80791 | 6.20511 | 35198 ft | 499 kts | 189° |
| 2026-04-22 21:04 | 46.73873 | 6.19588 | 35175 ft | 499 kts | 190° |
| 2026-04-22 21:05 | 46.66996 | 6.18674 | 35186 ft | 499 kts | 190° |
| 2026-04-22 21:05 | 46.60077 | 6.17759 | 35193 ft | 500 kts | 190° |
| 2026-04-22 21:06 | 46.53148 | 6.16839 | 35196 ft | 500 kts | 190° |
| 2026-04-22 21:06 | 46.46221 | 6.15932 | 35196 ft | 500 kts | 190° |
| 2026-04-22 21:07 | 46.39295 | 6.15029 | 35198 ft | 500 kts | 190° |
| 2026-04-22 21:07 | 46.32359 | 6.14125 | 35215 ft | 500 kts | 190° |
| 2026-04-22 21:08 | 46.26556 | 6.13361 | 35221 ft | 500 kts | 190° |
| 2026-04-22 21:08 | 46.19671 | 6.12194 | 35208 ft | 497 kts | 194° |
| 2026-04-22 21:09 | 46.12849 | 6.10570 | 35216 ft | 496 kts | 195° |
| 2026-04-22 21:09 | 46.06040 | 6.08887 | 35197 ft | 497 kts | 195° |
| 2026-04-22 21:10 | 45.99199 | 6.07333 | 35186 ft | 497 kts | 194° |
| 2026-04-22 21:10 | 45.92349 | 6.05861 | 35187 ft | 498 kts | 194° |
| 2026-04-22 21:11 | 45.85495 | 6.04382 | 35194 ft | 498 kts | 194° |
| 2026-04-22 21:11 | 45.78684 | 6.02883 | 35182 ft | 499 kts | 195° |
| 2026-04-22 21:12 | 45.71819 | 6.01349 | 35182 ft | 499 kts | 195° |
| 2026-04-22 21:12 | 45.64941 | 5.99827 | 35195 ft | 500 kts | 194° |
| 2026-04-22 21:13 | 45.58057 | 5.98331 | 35181 ft | 500 kts | 194° |
| 2026-04-22 21:13 | 45.51180 | 5.96833 | 35196 ft | 500 kts | 195° |
| 2026-04-22 21:14 | 45.44321 | 5.95217 | 35198 ft | 498 kts | 197° |
| 2026-04-22 21:14 | 45.37581 | 5.93107 | 35182 ft | 494 kts | 200° |
| 2026-04-22 21:15 | 45.30897 | 5.90829 | 35176 ft | 493 kts | 200° |
| 2026-04-22 21:15 | 45.24172 | 5.88654 | 35198 ft | 496 kts | 199° |
| 2026-04-22 21:16 | 45.17425 | 5.86589 | 35202 ft | 495 kts | 199° |
| 2026-04-22 21:16 | 45.10691 | 5.84551 | 35204 ft | 495 kts | 199° |
| 2026-04-22 21:17 | 45.03967 | 5.82483 | 35178 ft | 493 kts | 199° |
| 2026-04-22 21:17 | 44.97301 | 5.80414 | 35185 ft | 494 kts | 199° |
| 2026-04-22 21:18 | 44.90594 | 5.78347 | 35194 ft | 493 kts | 199° |
| 2026-04-22 21:18 | 44.83889 | 5.76284 | 35178 ft | 493 kts | 199° |
| 2026-04-22 21:19 | 44.77174 | 5.74232 | 35184 ft | 493 kts | 199° |
| 2026-04-22 21:19 | 44.70462 | 5.72186 | 35187 ft | 493 kts | 199° |
| 2026-04-22 21:20 | 44.63753 | 5.70147 | 35170 ft | 493 kts | 198° |
| 2026-04-22 21:20 | 44.57043 | 5.68110 | 35192 ft | 493 kts | 198° |
| 2026-04-22 21:21 | 44.50344 | 5.66080 | 35203 ft | 492 kts | 198° |
| 2026-04-22 21:21 | 44.43647 | 5.64046 | 35198 ft | 492 kts | 198° |
| 2026-04-22 21:22 | 44.37022 | 5.61788 | 35207 ft | 485 kts | 206° |
| 2026-04-22 21:22 | 44.30813 | 5.58393 | 35209 ft | 482 kts | 208° |
| 2026-04-22 21:23 | 44.24534 | 5.54961 | 35196 ft | 481 kts | 208° |
| 2026-04-22 21:23 | 44.18335 | 5.51580 | 35200 ft | 481 kts | 208° |
| 2026-04-22 21:24 | 44.12095 | 5.48180 | 35210 ft | 482 kts | 208° |
| 2026-04-22 21:24 | 44.05848 | 5.44787 | 35207 ft | 482 kts | 208° |
| 2026-04-22 21:25 | 43.99607 | 5.41401 | 35210 ft | 481 kts | 208° |
| 2026-04-22 21:25 | 43.93368 | 5.38025 | 35206 ft | 481 kts | 208° |
| 2026-04-22 21:26 | 43.87133 | 5.34652 | 35195 ft | 481 kts | 208° |
| 2026-04-22 21:26 | 43.80906 | 5.31288 | 35184 ft | 480 kts | 207° |
| 2026-04-22 21:27 | 43.74675 | 5.27938 | 35193 ft | 480 kts | 207° |
| 2026-04-22 21:27 | 43.68453 | 5.24594 | 35176 ft | 479 kts | 207° |
| 2026-04-22 21:28 | 43.62241 | 5.21256 | 35184 ft | 479 kts | 207° |
| 2026-04-22 21:28 | 43.56015 | 5.17926 | 35189 ft | 479 kts | 207° |
| 2026-04-22 21:29 | 43.49795 | 5.14612 | 35180 ft | 479 kts | 207° |
| 2026-04-22 21:29 | 43.43567 | 5.11304 | 35200 ft | 479 kts | 207° |
| 2026-04-22 21:30 | 43.37520 | 5.07586 | 35196 ft | 470 kts | 218° |
| 2026-04-22 21:30 | 43.32146 | 5.02578 | 35194 ft | 466 kts | 221° |
| 2026-04-22 21:31 | 43.26804 | 4.97519 | 35174 ft | 466 kts | 220° |
| 2026-04-22 21:31 | 43.21453 | 4.92482 | 35161 ft | 466 kts | 220° |
| 2026-04-22 21:32 | 43.16094 | 4.87466 | 35162 ft | 466 kts | 220° |
| 2026-04-22 21:32 | 43.10762 | 4.82493 | 35152 ft | 466 kts | 220° |
| 2026-04-22 21:33 | 43.05382 | 4.77529 | 35159 ft | 469 kts | 216° |
| 2026-04-22 21:33 | 42.99673 | 4.73154 | 35164 ft | 470 kts | 214° |
| 2026-04-22 21:34 | 42.93949 | 4.68818 | 35169 ft | 471 kts | 214° |
| 2026-04-22 21:34 | 42.88213 | 4.64485 | 35165 ft | 471 kts | 214° |
| 2026-04-22 21:35 | 42.82473 | 4.60161 | 35169 ft | 471 kts | 214° |
| 2026-04-22 21:35 | 42.76736 | 4.55843 | 35162 ft | 471 kts | 214° |
| 2026-04-22 21:36 | 42.71002 | 4.51532 | 35174 ft | 471 kts | 214° |
| 2026-04-22 21:36 | 42.65266 | 4.47220 | 35172 ft | 470 kts | 214° |
| 2026-04-22 21:37 | 42.59573 | 4.42956 | 35174 ft | 470 kts | 214° |
| 2026-04-22 21:37 | 42.53837 | 4.38679 | 35174 ft | 470 kts | 214° |
| 2026-04-22 21:38 | 42.48103 | 4.34411 | 35162 ft | 470 kts | 214° |
| 2026-04-22 21:38 | 42.42366 | 4.30143 | 35173 ft | 470 kts | 214° |
| 2026-04-22 21:39 | 42.36629 | 4.25884 | 35172 ft | 470 kts | 214° |
| 2026-04-22 21:39 | 42.30885 | 4.21636 | 35172 ft | 470 kts | 214° |
| 2026-04-22 21:40 | 42.25139 | 4.17394 | 35152 ft | 470 kts | 213° |
| 2026-04-22 21:40 | 42.19397 | 4.13162 | 35157 ft | 470 kts | 213° |
| 2026-04-22 21:41 | 42.13655 | 4.08926 | 35158 ft | 470 kts | 213° |
| 2026-04-22 21:41 | 42.07908 | 4.04702 | 35155 ft | 470 kts | 213° |
| 2026-04-22 21:42 | 42.02189 | 4.00519 | 35158 ft | 471 kts | 213° |
| 2026-04-22 21:42 | 41.96431 | 3.96316 | 35155 ft | 471 kts | 213° |
| 2026-04-22 21:43 | 41.90337 | 3.92961 | 35136 ft | 480 kts | 197° |
| 2026-04-22 21:43 | 41.83736 | 3.91371 | 35138 ft | 483 kts | 193° |
| 2026-04-22 21:44 | 41.77116 | 3.89837 | 35142 ft | 483 kts | 193° |
| 2026-04-22 21:44 | 41.70497 | 3.88299 | 35131 ft | 483 kts | 193° |
| 2026-04-22 21:45 | 41.63869 | 3.86773 | 35149 ft | 483 kts | 193° |
| 2026-04-22 21:45 | 41.57241 | 3.85265 | 35148 ft | 483 kts | 193° |
| 2026-04-22 21:46 | 41.50620 | 3.83744 | 35151 ft | 483 kts | 193° |
| 2026-04-22 21:46 | 41.44004 | 3.82227 | 35137 ft | 482 kts | 193° |
| 2026-04-22 21:47 | 41.37400 | 3.80724 | 35148 ft | 482 kts | 193° |
| 2026-04-22 21:47 | 41.30820 | 3.79096 | 35131 ft | 478 kts | 201° |
| 2026-04-22 21:48 | 41.24668 | 3.75912 | 35123 ft | 474 kts | 205° |
| 2026-04-22 21:48 | 41.18554 | 3.72645 | 35123 ft | 474 kts | 206° |
| 2026-04-22 21:49 | 41.12421 | 3.69402 | 35127 ft | 475 kts | 205° |
| 2026-04-22 21:49 | 41.06244 | 3.66277 | 35123 ft | 475 kts | 204° |
| 2026-04-22 21:50 | 41.00076 | 3.63198 | 34529 ft | 473 kts | 204° |
| 2026-04-22 21:50 | 40.96997 | 3.61653 | 33626 ft | 474 kts | 204° |
| 2026-04-22 21:50 | 40.94948 | 3.60620 | 32979 ft | 475 kts | 204° |
| 2026-04-22 21:51 | 40.91855 | 3.59055 | 32001 ft | 477 kts | 204° |
| 2026-04-22 21:51 | 40.88744 | 3.57479 | 31028 ft | 479 kts | 204° |
| 2026-04-22 21:51 | 40.85626 | 3.55898 | 30026 ft | 481 kts | 204° |
| 2026-04-22 21:52 | 40.79339 | 3.52742 | 27660 ft | 485 kts | 204° |
| 2026-04-22 21:52 | 40.76181 | 3.51162 | 26492 ft | 485 kts | 204° |
| 2026-04-22 21:52 | 40.73028 | 3.49586 | 25317 ft | 485 kts | 204° |
| 2026-04-22 21:52 | 40.69866 | 3.48000 | 24178 ft | 485 kts | 204° |
| 2026-04-22 21:53 | 40.66732 | 3.46429 | 23352 ft | 477 kts | 204° |
| 2026-04-22 21:53 | 40.63651 | 3.44895 | 22476 ft | 470 kts | 204° |
| 2026-04-22 21:53 | 40.60655 | 3.43259 | 21669 ft | 462 kts | 212° |
| 2026-04-22 21:53 | 40.57920 | 3.41063 | 21244 ft | 459 kts | 215° |
| 2026-04-22 21:54 | 40.55221 | 3.38822 | 20877 ft | 458 kts | 215° |
| 2026-04-22 21:54 | 40.52531 | 3.36589 | 20509 ft | 456 kts | 215° |
| 2026-04-22 21:54 | 40.49855 | 3.34369 | 20142 ft | 454 kts | 215° |
| 2026-04-22 21:54 | 40.47193 | 3.32163 | 19773 ft | 452 kts | 215° |
| 2026-04-22 21:55 | 40.44538 | 3.29965 | 19416 ft | 450 kts | 215° |
| 2026-04-22 21:55 | 40.41899 | 3.27783 | 19052 ft | 447 kts | 215° |
| 2026-04-22 21:55 | 40.39269 | 3.25610 | 18695 ft | 445 kts | 215° |
| 2026-04-22 21:55 | 40.36688 | 3.23480 | 18350 ft | 443 kts | 215° |
| 2026-04-22 21:56 | 40.34083 | 3.21333 | 17947 ft | 440 kts | 215° |
| 2026-04-22 21:56 | 40.31495 | 3.19204 | 17550 ft | 437 kts | 215° |
| 2026-04-22 21:56 | 40.28927 | 3.17095 | 17158 ft | 434 kts | 215° |
| 2026-04-22 21:56 | 40.26376 | 3.15004 | 16768 ft | 431 kts | 215° |
| 2026-04-22 21:57 | 40.23844 | 3.12933 | 16384 ft | 428 kts | 215° |
| 2026-04-22 21:57 | 40.21323 | 3.10875 | 15993 ft | 425 kts | 215° |
| 2026-04-22 21:57 | 40.18827 | 3.08840 | 15624 ft | 422 kts | 215° |
| 2026-04-22 21:57 | 40.16339 | 3.06811 | 15256 ft | 419 kts | 215° |
| 2026-04-22 21:58 | 40.13870 | 3.04799 | 14887 ft | 416 kts | 215° |
| 2026-04-22 21:58 | 40.11429 | 3.02794 | 14526 ft | 413 kts | 215° |
| 2026-04-22 21:58 | 40.09007 | 3.00798 | 14171 ft | 410 kts | 215° |
| 2026-04-22 21:58 | 40.06638 | 2.98846 | 13818 ft | 407 kts | 215° |
| 2026-04-22 21:59 | 40.04247 | 2.96877 | 13416 ft | 404 kts | 215° |
| 2026-04-22 21:59 | 40.01878 | 2.94922 | 13030 ft | 402 kts | 215° |
| 2026-04-22 21:59 | 39.99524 | 2.92976 | 12644 ft | 400 kts | 215° |
| 2026-04-22 21:59 | 39.97182 | 2.91033 | 12257 ft | 398 kts | 215° |
| 2026-04-22 22:00 | 39.94852 | 2.89090 | 11875 ft | 396 kts | 215° |
| 2026-04-22 22:00 | 39.92539 | 2.87158 | 11414 ft | 394 kts | 215° |
| 2026-04-22 22:00 | 39.90240 | 2.85235 | 10919 ft | 391 kts | 215° |
| 2026-04-22 22:00 | 39.87969 | 2.83329 | 10443 ft | 385 kts | 215° |
| 2026-04-22 22:01 | 39.85762 | 2.81478 | 10244 ft | 368 kts | 215° |
| 2026-04-22 22:01 | 39.83658 | 2.79715 | 10082 ft | 352 kts | 215° |
| 2026-04-22 22:01 | 39.81649 | 2.78035 | 9908 ft | 332 kts | 215° |
| 2026-04-22 22:01 | 39.79784 | 2.76485 | 9726 ft | 306 kts | 215° |
| 2026-04-22 22:02 | 39.78051 | 2.75054 | 9546 ft | 287 kts | 215° |
| 2026-04-22 22:02 | 39.76377 | 2.73675 | 9354 ft | 283 kts | 215° |
| 2026-04-22 22:02 | 39.74733 | 2.72315 | 9006 ft | 284 kts | 215° |
| 2026-04-22 22:02 | 39.73069 | 2.70929 | 8632 ft | 283 kts | 215° |
| 2026-04-22 22:03 | 39.71426 | 2.69555 | 8260 ft | 280 kts | 215° |
| 2026-04-22 22:03 | 39.69789 | 2.68177 | 7890 ft | 279 kts | 215° |
| 2026-04-22 22:03 | 39.68172 | 2.66809 | 7525 ft | 277 kts | 215° |
| 2026-04-22 22:03 | 39.66568 | 2.65450 | 7171 ft | 275 kts | 215° |
| 2026-04-22 22:04 | 39.64966 | 2.64095 | 6808 ft | 274 kts | 215° |
| 2026-04-22 22:04 | 39.63378 | 2.62747 | 6452 ft | 271 kts | 215° |
| 2026-04-22 22:04 | 39.61808 | 2.61407 | 6076 ft | 268 kts | 215° |
| 2026-04-22 22:04 | 39.60289 | 2.60102 | 5706 ft | 256 kts | 215° |
| 2026-04-22 22:05 | 39.58835 | 2.58845 | 5338 ft | 247 kts | 215° |
| 2026-04-22 22:05 | 39.57429 | 2.57627 | 4976 ft | 239 kts | 215° |
| 2026-04-22 22:05 | 39.56071 | 2.56436 | 4595 ft | 233 kts | 215° |
| 2026-04-22 22:05 | 39.54746 | 2.55263 | 4225 ft | 229 kts | 214° |
| 2026-04-22 22:06 | 39.53436 | 2.54053 | 3711 ft | 232 kts | 218° |
| 2026-04-22 22:06 | 39.52273 | 2.52587 | 3180 ft | 235 kts | 226° |
| 2026-04-22 22:06 | 39.51111 | 2.51148 | 2856 ft | 225 kts | 208° |
| 2026-04-22 22:06 | 39.49684 | 2.50670 | 2700 ft | 206 kts | 172° |
| 2026-04-22 22:07 | 39.48373 | 2.51230 | 2605 ft | 197 kts | 144° |
| 2026-04-22 22:07 | 39.47464 | 2.52504 | 2500 ft | 193 kts | 116° |
| 2026-04-22 22:07 | 39.47140 | 2.54167 | 2401 ft | 193 kts | 89° |
| 2026-04-22 22:07 | 39.47467 | 2.55814 | 2312 ft | 194 kts | 62° |
| 2026-04-22 22:08 | 39.48183 | 2.57328 | 2208 ft | 195 kts | 60° |
| 2026-04-22 22:08 | 39.48888 | 2.58799 | 2134 ft | 193 kts | 60° |
| 2026-04-22 22:08 | 39.49577 | 2.60243 | 1946 ft | 185 kts | 60° |
| 2026-04-22 22:08 | 39.50242 | 2.61642 | 1698 ft | 178 kts | 60° |
| 2026-04-22 22:09 | 39.50862 | 2.62947 | 1476 ft | 162 kts | 60° |
| 2026-04-22 22:09 | 39.51418 | 2.64116 | 1266 ft | 145 kts | 60° |
| 2026-04-22 22:09 | 39.51935 | 2.65203 | 1080 ft | 139 kts | 60° |
| 2026-04-22 22:09 | 39.52438 | 2.66263 | 898 ft | 138 kts | 60° |
| 2026-04-22 22:10 | 39.52933 | 2.67313 | 728 ft | 136 kts | 59° |
| 2026-04-22 22:10 | 39.53428 | 2.68355 | 551 ft | 136 kts | 58° |
| 2026-04-22 22:10 | 39.53923 | 2.69397 | 367 ft | 135 kts | 59° |
| 2026-04-22 22:10 | 39.54414 | 2.70435 | 187 ft | 135 kts | 58° |
| 2026-04-22 22:11 | 39.54901 | 2.71463 | 43 ft | 130 kts | 58° |
| 2026-04-22 22:11 | 39.55278 | 2.72259 | 38 ft | 64 kts | 58° |
| 2026-04-22 22:11 | 39.55453 | 2.72631 | 38 ft | 41 kts | 60° |
| 2026-04-22 22:11 | 39.55495 | 2.72950 | 38 ft | 26 kts | 91° |
| 2026-04-22 22:12 | 39.55500 | 2.73119 | 38 ft | 19 kts | 85° |
| 2026-04-22 22:12 | 39.55550 | 2.73277 | 38 ft | 20 kts | 58° |
| 2026-04-22 22:12 | 39.55623 | 2.73435 | 36 ft | 20 kts | 63° |
| 2026-04-22 22:12 | 39.55564 | 2.73546 | 38 ft | 15 kts | 148° |
| 2026-04-22 22:13 | 39.55490 | 2.73548 | 37 ft | 11 kts | 230° |
| 2026-04-22 22:13 | 39.55454 | 2.73471 | 38 ft | 9 kts | 235° |
| 2026-04-22 22:13 | 39.55401 | 2.73460 | 38 ft | 8 kts | 162° |
| 2026-04-22 22:13 | 39.55349 | 2.73498 | 38 ft | 9 kts | 147° |
| 2026-04-22 22:14 | 39.55291 | 2.73546 | 38 ft | 11 kts | 148° |
| 2026-04-22 22:14 | 39.55222 | 2.73602 | 38 ft | 13 kts | 148° |
| 2026-04-22 22:14 | 39.55158 | 2.73634 | 38 ft | 8 kts | 199° |
| 2026-04-22 22:14 | 39.55121 | 2.73574 | 38 ft | 9 kts | 243° |
| 2026-04-22 22:15 | 39.55078 | 2.73524 | 38 ft | 9 kts | 185° |
| 2026-04-22 22:15 | 39.55049 | 2.73534 | 38 ft | 1 kts | 163° |
| 2026-04-22 22:15 | 39.55046 | 2.73535 | 38 ft | 0 kts | 163° |
| 2026-04-22 22:15 | 39.55045 | 2.73535 | 38 ft | 0 kts | 163° |